createdAt,value
2019-04-28T00:02:02.473Z,88.55
2019-04-28T00:04:28.494Z,88.39
2019-04-28T00:06:54.663Z,88.85
2019-04-28T00:09:21.565Z,88.49
2019-04-28T00:11:48.898Z,88.52
2019-04-28T00:14:15.033Z,88.07
2019-04-28T00:16:41.291Z,87.82
2019-04-28T00:19:07.494Z,87.09
2019-04-28T00:21:41.591Z,86.63
2019-04-28T00:24:15.829Z,87.02
2019-04-28T00:26:46.922Z,87.69
2019-04-28T00:29:13.247Z,87.85
2019-04-28T00:31:41.196Z,87.91
2019-04-28T00:34:07.494Z,87.74
2019-04-28T00:36:33.561Z,87.91
2019-04-28T00:39:01.376Z,87.77
2019-04-28T00:41:27.589Z,87.54
2019-04-28T00:43:53.652Z,87.47
2019-04-28T00:46:21.541Z,87.40
2019-04-28T00:48:47.596Z,88.33
2019-04-28T00:51:13.661Z,88.59
2019-04-28T00:53:40.884Z,88.92
2019-04-28T00:56:07.066Z,88.39
2019-04-28T00:58:33.228Z,87.65
2019-04-28T01:01:11.360Z,87.60
2019-04-28T01:03:37.602Z,87.86
2019-04-28T01:06:04.029Z,87.86
2019-04-28T01:08:30.885Z,88.32
2019-04-28T01:10:57.164Z,88.19
2019-04-28T01:13:23.882Z,88.01
2019-04-28T01:15:59.314Z,87.97
2019-04-28T01:18:30.297Z,87.75
2019-04-28T01:20:56.414Z,88.13
2019-04-28T01:23:22.411Z,88.65
2019-04-28T01:25:50.057Z,88.52
2019-04-28T01:28:16.385Z,88.75
2019-04-28T01:30:59.918Z,88.79
2019-04-28T01:33:29.478Z,89.55
2019-04-28T01:35:55.661Z,90.20
2019-04-28T01:38:21.783Z,90.14
2019-04-28T01:40:47.840Z,90.35
2019-04-28T01:43:13.925Z,90.49
2019-04-28T01:45:41.594Z,90.61
2019-04-28T01:48:07.699Z,90.30
2019-04-28T01:50:33.715Z,90.26
2019-04-28T01:52:59.825Z,90.38
2019-04-28T01:55:25.898Z,90.17
2019-04-28T01:57:51.900Z,90.16
2019-04-28T02:00:22.919Z,89.95
2019-04-28T02:02:46.477Z,90.13
2019-04-28T02:05:13.849Z,89.65
2019-04-28T02:07:40.759Z,89.89
2019-04-28T02:10:07.139Z,90.41
2019-04-28T02:12:33.269Z,90.07
2019-04-28T02:15:01.010Z,89.78
2019-04-28T02:17:27.403Z,89.27
2019-04-28T02:19:53.407Z,89.16
2019-04-28T02:22:36.551Z,88.88
2019-04-28T02:25:04.568Z,89.10
2019-04-28T02:27:30.655Z,88.73
2019-04-28T02:29:56.637Z,89.10
2019-04-28T02:32:24.396Z,89.13
2019-04-28T02:34:51.199Z,89.26
2019-04-28T02:37:17.354Z,89.23
2019-04-28T02:39:43.456Z,89.29
2019-04-28T02:42:10.967Z,89.33
2019-04-28T02:44:37.375Z,89.29
2019-04-28T02:47:03.457Z,89.54
2019-04-28T02:49:40.653Z,89.34
2019-04-28T02:52:10.695Z,89.68
2019-04-28T02:54:37.044Z,89.91
2019-04-28T02:57:03.561Z,90.19
2019-04-28T02:59:30.535Z,90.59
2019-04-28T03:01:56.757Z,90.92
2019-04-28T03:04:22.994Z,91.29
2019-04-28T03:06:51.645Z,91.49
2019-04-28T03:09:17.424Z,91.71
2019-04-28T03:11:43.590Z,91.85
2019-04-28T03:14:11.075Z,91.72
2019-04-28T03:16:37.333Z,91.93
2019-04-28T03:19:03.377Z,92.15
2019-04-28T03:21:31.273Z,92.00
2019-04-28T03:23:57.654Z,91.97
2019-04-28T03:26:42.388Z,92.48
2019-04-28T03:29:16.084Z,92.71
2019-04-28T03:32:10.219Z,92.59
2019-04-28T03:34:13.075Z,92.43
2019-04-28T03:36:40.782Z,92.42
2019-04-28T03:39:07.305Z,92.54
2019-04-28T03:41:33.418Z,92.65
2019-04-28T03:44:00.495Z,92.37
2019-04-28T03:46:30.434Z,92.37
2019-04-28T03:48:56.561Z,92.27
2019-04-28T03:51:22.590Z,92.32
2019-04-28T03:53:50.672Z,92.20
2019-04-28T03:56:17.045Z,92.27
2019-04-28T03:58:43.046Z,92.70
2019-04-28T04:01:10.758Z,92.67
2019-04-28T04:03:37.009Z,92.93
2019-04-28T04:06:03.272Z,93.19
2019-04-28T04:08:31.010Z,92.68
2019-04-28T04:11:01.696Z,92.96
2019-04-28T04:13:33.151Z,93.03
2019-04-28T04:16:07.031Z,92.65
2019-04-28T04:18:40.494Z,92.83
2019-04-28T04:21:05.973Z,92.55
2019-04-28T04:23:32.001Z,92.30
2019-04-28T04:25:58.010Z,92.27
2019-04-28T04:28:24.020Z,92.37
2019-04-28T04:30:50.950Z,92.45
2019-04-28T04:33:17.107Z,92.52
2019-04-28T04:35:43.714Z,91.71
2019-04-28T04:38:10.525Z,92.17
2019-04-28T04:40:36.761Z,92.03
2019-04-28T04:43:02.785Z,92.35
2019-04-28T04:45:30.455Z,92.18
2019-04-28T04:47:56.854Z,92.39
2019-04-28T04:50:22.950Z,93.12
2019-04-28T04:52:50.240Z,93.51
2019-04-28T04:55:16.330Z,93.54
2019-04-28T04:57:42.500Z,93.60
2019-04-28T05:00:10.647Z,93.43
2019-04-28T05:02:48.091Z,93.22
2019-04-28T05:05:11.841Z,93.30
2019-04-28T05:07:39.602Z,93.29
2019-04-28T05:10:05.951Z,93.19
2019-04-28T05:12:31.988Z,93.25
2019-04-28T05:14:58.076Z,92.97
2019-04-28T05:17:24.153Z,92.93
2019-04-28T05:19:50.178Z,92.73
2019-04-28T05:22:17.793Z,92.14
2019-04-28T05:24:54.176Z,91.93
2019-04-28T05:27:22.157Z,91.61
2019-04-28T05:29:46.434Z,91.29
2019-04-28T05:32:12.513Z,90.87
2019-04-28T05:34:41.408Z,91.22
2019-04-28T05:37:06.596Z,91.16
2019-04-28T05:39:32.753Z,90.71
2019-04-28T05:42:00.660Z,90.10
2019-04-28T05:44:26.909Z,90.08
2019-04-28T05:46:52.932Z,90.11
2019-04-28T05:49:35.620Z,89.61
2019-04-28T05:52:11.873Z,88.88
2019-04-28T05:54:42.214Z,88.91
2019-04-28T05:57:13.045Z,88.56
2019-04-28T05:59:41.124Z,88.60
2019-04-28T06:02:10.319Z,88.60
2019-04-28T06:04:37.130Z,88.37
2019-04-28T06:07:05.154Z,88.43
2019-04-28T06:09:33.129Z,88.70
2019-04-28T06:12:00.127Z,88.69
2019-04-28T06:14:26.323Z,87.94
2019-04-28T06:16:52.601Z,88.69
2019-04-28T06:19:20.200Z,88.97
2019-04-28T06:21:46.433Z,88.52
2019-04-28T06:24:12.652Z,88.01
2019-04-28T06:26:38.732Z,88.21
2019-04-28T06:29:04.870Z,88.51
2019-04-28T06:31:31.231Z,88.47
2019-04-28T06:33:57.358Z,88.57
2019-04-28T06:36:23.416Z,88.23
2019-04-28T06:38:49.530Z,87.99
2019-04-28T06:41:15.651Z,87.96
2019-04-28T06:43:44.440Z,87.85
2019-04-28T06:46:10.512Z,87.63
2019-04-28T06:48:36.598Z,87.52
2019-04-28T06:51:02.786Z,87.49
2019-04-28T06:53:28.909Z,86.72
2019-04-28T06:55:55.060Z,86.43
2019-04-28T06:58:21.104Z,86.63
2019-04-28T07:00:47.225Z,86.59
2019-04-28T07:03:22.979Z,86.59
2019-04-28T07:05:41.232Z,86.33
2019-04-28T07:08:07.608Z,86.82
2019-04-28T07:10:34.310Z,86.27
2019-04-28T07:13:00.403Z,85.63
2019-04-28T07:15:26.461Z,85.92
2019-04-28T07:17:52.564Z,85.75
2019-04-28T07:20:38.569Z,85.65
2019-04-28T07:23:04.777Z,85.78
2019-04-28T07:25:30.824Z,86.91
2019-04-28T07:27:56.932Z,85.40
2019-04-28T07:30:23.315Z,85.21
2019-04-28T07:32:49.439Z,85.52
2019-04-28T07:35:15.539Z,85.52
2019-04-28T07:37:41.602Z,85.23
2019-04-28T07:40:07.998Z,84.82
2019-04-28T07:42:34.122Z,84.92
2019-04-28T07:45:00.148Z,85.10
2019-04-28T07:47:26.212Z,84.87
2019-04-28T07:49:52.251Z,84.45
2019-04-28T07:52:20.297Z,84.44
2019-04-28T07:54:46.424Z,84.35
2019-04-28T07:57:12.520Z,85.12
2019-04-28T07:59:38.616Z,85.34
2019-04-28T08:02:05.242Z,84.50
2019-04-28T08:04:31.660Z,84.62
2019-04-28T08:06:57.670Z,84.08
2019-04-28T08:09:23.952Z,83.73
2019-04-28T08:11:50.150Z,83.73
2019-04-28T08:14:16.304Z,83.01
2019-04-28T08:16:42.742Z,83.18
2019-04-28T08:19:09.383Z,83.18
2019-04-28T08:21:35.500Z,83.21
2019-04-28T08:24:02.113Z,82.90
2019-04-28T08:26:28.373Z,83.38
2019-04-28T08:28:54.516Z,83.06
2019-04-28T08:31:22.474Z,83.18
2019-04-28T08:34:01.738Z,82.50
2019-04-28T08:36:18.478Z,82.37
2019-04-28T08:38:44.933Z,82.47
2019-04-28T08:41:10.948Z,81.99
2019-04-28T08:43:36.999Z,81.35
2019-04-28T08:46:03.210Z,80.84
2019-04-28T08:48:29.653Z,80.80
2019-04-28T08:50:55.776Z,80.16
2019-04-28T08:53:22.301Z,80.66
2019-04-28T08:55:48.671Z,79.37
2019-04-28T08:58:16.069Z,77.57
2019-04-28T09:00:42.236Z,77.11
2019-04-28T09:03:08.361Z,76.42
2019-04-28T09:05:34.511Z,76.28
2019-04-28T09:08:00.885Z,76.55
2019-04-28T09:10:27.193Z,76.69
2019-04-28T09:12:53.460Z,76.86
2019-04-28T09:15:19.589Z,77.33
2019-04-28T09:17:45.754Z,77.64
2019-04-28T09:20:11.961Z,76.89
2019-04-28T09:22:38.635Z,76.69
2019-04-28T09:25:05.976Z,77.87
2019-04-28T09:27:32.085Z,78.02
2019-04-28T09:29:58.184Z,77.18
2019-04-28T09:32:24.622Z,80.04
2019-04-28T09:34:50.701Z,77.62
2019-04-28T09:37:16.864Z,77.55
2019-04-28T09:39:51.031Z,78.20
2019-04-28T09:42:30.850Z,77.54
2019-04-28T09:45:04.159Z,78.60
2019-04-28T09:47:30.191Z,78.22
2019-04-28T09:49:56.371Z,77.71
2019-04-28T09:52:22.553Z,77.10
2019-04-28T09:54:48.862Z,76.84
2019-04-28T09:57:14.904Z,76.64
2019-04-28T09:59:42.119Z,75.93
2019-04-28T10:02:08.389Z,77.05
2019-04-28T10:04:41.449Z,76.76
2019-04-28T10:07:02.747Z,75.33
2019-04-28T10:09:28.899Z,74.55
2019-04-28T10:11:55.258Z,74.81
2019-04-28T10:14:21.440Z,74.46
2019-04-28T10:16:47.459Z,74.54
2019-04-28T10:19:13.614Z,75.25
2019-04-28T10:21:39.895Z,75.55
2019-04-28T10:24:06.067Z,75.43
2019-04-28T10:26:32.205Z,74.01
2019-04-28T10:28:58.336Z,73.11
2019-04-28T10:31:24.418Z,71.68
2019-04-28T10:33:52.311Z,70.46
2019-04-28T10:36:18.619Z,69.68
2019-04-28T10:38:46.632Z,67.83
2019-04-28T10:41:23.852Z,66.90
2019-04-28T10:43:49.935Z,67.57
2019-04-28T10:46:16.016Z,68.52
2019-04-28T10:48:42.212Z,69.45
2019-04-28T10:51:08.357Z,69.44
2019-04-28T10:56:57.775Z,69.76
2019-04-28T10:59:23.884Z,70.92
2019-04-28T11:01:50.032Z,70.37
2019-04-28T11:04:34.350Z,70.08
2019-04-28T11:07:00.503Z,71.45
2019-04-28T11:09:30.768Z,71.27
2019-04-28T11:11:56.674Z,71.67
2019-04-28T11:14:22.876Z,72.25
2019-04-28T11:16:48.984Z,72.56
2019-04-28T11:19:15.104Z,72.78
2019-04-28T11:21:41.427Z,73.00
2019-04-28T11:24:07.820Z,73.00
2019-04-28T11:26:33.989Z,73.69
2019-04-28T11:29:00.174Z,73.79
2019-04-28T11:31:26.241Z,74.38
2019-04-28T11:34:00.080Z,74.08
2019-04-28T11:36:26.133Z,73.97
2019-04-28T11:38:52.320Z,74.23
2019-04-28T11:41:18.794Z,74.50
2019-04-28T11:43:44.880Z,74.49
2019-04-28T11:46:12.776Z,74.73
2019-04-28T11:48:39.046Z,75.75
2019-04-28T11:51:05.142Z,76.56
2019-04-28T11:53:31.270Z,76.42
2019-04-28T11:55:57.325Z,76.61
2019-04-28T11:58:23.348Z,76.80
2019-04-28T12:00:49.364Z,77.02
2019-04-28T12:03:15.501Z,77.31
2019-04-28T12:05:43.412Z,77.59
2019-04-28T12:08:09.480Z,77.51
2019-04-28T12:10:49.591Z,77.19
2019-04-28T12:13:26.303Z,77.52
2019-04-28T12:15:57.130Z,78.32
2019-04-28T12:18:28.327Z,78.45
2019-04-28T12:20:54.520Z,77.97
2019-04-28T12:23:20.543Z,77.63
2019-04-28T12:25:46.553Z,78.51
2019-04-28T12:28:12.590Z,78.32
2019-04-28T12:30:38.688Z,78.61
2019-04-28T12:33:04.725Z,78.69
2019-04-28T12:35:30.756Z,78.51
2019-04-28T12:37:56.783Z,78.16
2019-04-28T12:40:22.905Z,77.51
2019-04-28T12:42:48.988Z,77.45
2019-04-28T12:45:15.100Z,78.94
2019-04-28T12:47:41.212Z,80.65
2019-04-28T12:50:15.480Z,80.75
2019-04-28T12:52:41.505Z,80.25
2019-04-28T12:55:07.856Z,80.14
2019-04-28T12:57:33.862Z,80.08
2019-04-28T13:00:01.773Z,80.22
2019-04-28T13:02:29.822Z,80.77
2019-04-28T13:04:57.746Z,80.82
2019-04-28T13:07:23.886Z,80.80
2019-04-28T13:09:50.007Z,80.90
2019-04-28T13:12:16.133Z,80.35
2019-04-28T13:14:42.169Z,80.84
2019-04-28T13:17:08.195Z,80.61
2019-04-28T13:19:34.314Z,79.87
2019-04-28T13:22:00.432Z,80.70
2019-04-28T13:24:26.437Z,80.05
2019-04-28T13:26:52.490Z,80.95
2019-04-28T13:29:18.602Z,79.79
2019-04-28T13:31:44.623Z,79.65
2019-04-28T13:34:12.682Z,79.78
2019-04-28T13:36:38.750Z,80.35
2019-04-28T13:39:08.790Z,79.41
2019-04-28T13:41:37.249Z,80.13
2019-04-28T13:44:04.996Z,79.88
2019-04-28T13:46:30.987Z,80.46
2019-04-28T13:48:57.020Z,79.74
2019-04-28T13:51:23.079Z,79.64
2019-04-28T13:53:49.168Z,79.58
2019-04-28T13:56:15.217Z,80.44
2019-04-28T13:58:43.734Z,80.32
2019-04-28T14:01:11.620Z,81.24
2019-04-28T14:03:48.250Z,81.05
2019-04-28T14:06:27.726Z,81.39
2019-04-28T14:08:44.016Z,79.86
2019-04-28T14:11:10.033Z,79.76
2019-04-28T14:13:36.163Z,78.66
2019-04-28T14:16:02.444Z,78.62
2019-04-28T14:18:28.597Z,78.36
2019-04-28T14:20:54.713Z,78.81
2019-04-28T14:23:20.810Z,78.53
2019-04-28T14:25:46.823Z,80.15
2019-04-28T14:28:12.880Z,79.60
2019-04-28T14:30:39.031Z,79.77
2019-04-28T14:33:05.130Z,79.31
2019-04-28T14:35:31.479Z,78.41
2019-04-28T14:37:57.769Z,78.90
2019-04-28T14:40:23.923Z,78.93
2019-04-28T14:42:50.270Z,79.42
2019-04-28T14:45:16.518Z,78.90
2019-04-28T14:47:42.504Z,78.17
2019-04-28T14:50:08.711Z,78.53
2019-04-28T14:52:34.863Z,78.20
2019-04-28T14:55:00.903Z,78.52
2019-04-28T14:57:26.916Z,78.98
2019-04-28T14:59:53.064Z,79.80
2019-04-28T15:02:26.754Z,79.80
2019-04-28T15:04:54.680Z,79.94
2019-04-28T15:07:40.731Z,79.80
2019-04-28T15:10:21.860Z,78.83
2019-04-28T15:12:48.182Z,78.55
2019-04-28T15:15:14.322Z,78.46
2019-04-28T15:17:40.492Z,78.32
2019-04-28T15:20:06.698Z,78.07
2019-04-28T15:22:32.819Z,78.13
2019-04-28T15:24:58.986Z,77.56
2019-04-28T15:27:25.029Z,77.77
2019-04-28T15:29:51.168Z,77.12
2019-04-28T15:32:17.251Z,77.33
2019-04-28T15:34:43.429Z,76.87
2019-04-28T15:37:10.353Z,77.72
2019-04-28T15:39:36.625Z,77.19
2019-04-28T15:42:02.840Z,77.29
2019-04-28T15:44:28.929Z,77.07
2019-04-28T15:46:55.024Z,78.00
2019-04-28T15:49:21.076Z,77.85
2019-04-28T15:51:47.275Z,78.35
2019-04-28T15:54:13.303Z,77.62
2019-04-28T15:56:41.236Z,77.89
2019-04-28T15:59:07.254Z,78.20
2019-04-28T16:01:33.379Z,78.82
2019-04-28T16:03:59.405Z,78.21
2019-04-28T16:06:25.569Z,80.28
2019-04-28T16:08:51.623Z,78.19
2019-04-28T16:11:17.737Z,78.23
2019-04-28T16:13:43.828Z,78.80
2019-04-28T16:16:09.868Z,78.45
2019-04-28T16:18:35.905Z,78.76
2019-04-28T16:21:02.079Z,79.09
2019-04-28T16:23:28.227Z,79.12
2019-04-28T16:25:54.443Z,79.74
2019-04-28T16:28:20.776Z,80.19
2019-04-28T16:30:46.797Z,80.14
2019-04-28T16:33:12.823Z,80.24
2019-04-28T16:35:39.013Z,79.56
2019-04-28T16:38:05.116Z,80.05
2019-04-28T16:40:31.882Z,80.02
2019-04-28T16:42:58.701Z,80.26
2019-04-28T16:45:24.829Z,80.18
2019-04-28T16:47:50.898Z,80.58
2019-04-28T16:50:17.244Z,80.48
2019-04-28T16:52:43.405Z,80.25
2019-04-28T16:55:13.965Z,80.54
2019-04-28T16:57:44.580Z,80.25
2019-04-28T17:00:15.576Z,80.33
2019-04-28T17:02:42.041Z,80.35
2019-04-28T17:05:08.932Z,80.45
2019-04-28T17:07:35.051Z,80.14
2019-04-28T17:10:01.279Z,80.68
2019-04-28T17:12:27.361Z,80.87
2019-04-28T17:14:53.339Z,80.99
2019-04-28T17:17:19.448Z,81.28
2019-04-28T17:19:45.503Z,80.98
2019-04-28T17:22:11.869Z,81.38
2019-04-28T17:24:38.005Z,80.78
2019-04-28T17:27:04.139Z,81.60
2019-04-28T17:29:30.191Z,81.60
2019-04-28T17:31:56.315Z,81.87
2019-04-28T17:34:22.408Z,80.38
2019-04-28T17:36:48.735Z,80.89
2019-04-28T17:39:17.097Z,81.35
2019-04-28T17:41:43.226Z,81.30
2019-04-28T17:44:09.272Z,81.88
2019-04-28T17:46:35.421Z,81.86
2019-04-28T17:49:01.532Z,81.70
2019-04-28T17:51:27.574Z,81.84
2019-04-28T17:53:53.828Z,81.79
2019-04-28T17:56:19.904Z,81.46
2019-04-28T17:58:46.069Z,81.50
2019-04-28T18:01:32.020Z,82.38
2019-04-28T18:04:03.202Z,82.49
2019-04-28T18:06:31.204Z,82.27
2019-04-28T18:08:57.259Z,82.73
2019-04-28T18:11:23.519Z,82.76
2019-04-28T18:13:49.757Z,82.56
2019-04-28T18:16:35.784Z,82.83
2019-04-28T18:19:06.556Z,82.68
2019-04-28T18:21:34.037Z,82.68
2019-04-28T18:24:00.580Z,82.79
2019-04-28T18:26:26.964Z,82.95
2019-04-28T18:28:53.138Z,83.08
2019-04-28T18:31:21.174Z,83.10
2019-04-28T18:34:04.180Z,83.10
2019-04-28T18:36:32.296Z,83.59
2019-04-28T18:39:00.688Z,82.92
2019-04-28T18:41:40.480Z,83.66
2019-04-28T18:44:11.381Z,83.74
2019-04-28T18:46:37.500Z,84.32
2019-04-28T18:49:03.501Z,84.34
2019-04-28T18:51:29.673Z,84.30
2019-04-28T18:53:55.778Z,84.02
2019-04-28T18:56:22.011Z,84.37
2019-04-28T18:58:48.220Z,84.84
2019-04-28T19:01:16.159Z,84.85
2019-04-28T19:03:42.383Z,84.58
2019-04-28T19:06:08.549Z,84.72
2019-04-28T19:08:48.911Z,84.89
2019-04-28T19:11:20.947Z,84.45
2019-04-28T19:13:51.790Z,84.54
2019-04-28T19:16:31.827Z,84.43
2019-04-28T19:18:59.762Z,83.79
2019-04-28T19:21:25.793Z,84.15
2019-04-28T19:23:54.150Z,84.69
2019-04-28T19:26:19.786Z,84.75
2019-04-28T19:28:45.904Z,85.17
2019-04-28T19:31:12.383Z,85.40
2019-04-28T19:33:38.401Z,85.26
2019-04-28T19:36:04.566Z,85.23
2019-04-28T19:38:30.856Z,85.66
2019-04-28T19:40:57.029Z,86.21
2019-04-28T19:43:23.182Z,86.02
2019-04-28T19:45:50.615Z,85.78
2019-04-28T19:48:16.876Z,86.45
2019-04-28T19:50:42.922Z,86.44
2019-04-28T19:53:08.979Z,86.53
2019-04-28T19:55:42.771Z,86.54
2019-04-28T19:58:16.297Z,86.50
2019-04-28T20:00:50.562Z,86.37
2019-04-28T20:03:16.699Z,86.04
2019-04-28T20:05:42.799Z,86.05
2019-04-28T20:08:09.217Z,86.31
2019-04-28T20:10:35.317Z,86.36
2019-04-28T20:13:01.309Z,86.57
2019-04-28T20:15:27.345Z,86.38
2019-04-28T20:17:53.554Z,86.21
2019-04-28T20:20:19.621Z,86.86
2019-04-28T20:22:45.730Z,86.56
2019-04-28T20:25:12.047Z,86.87
2019-04-28T20:27:38.088Z,86.63
2019-04-28T20:30:05.961Z,86.21
2019-04-28T20:32:34.020Z,86.72
2019-04-28T20:35:00.116Z,87.23
2019-04-28T20:37:28.088Z,87.09
2019-04-28T20:39:58.825Z,87.28
2019-04-28T20:42:43.200Z,87.28
2019-04-28T20:45:11.517Z,86.98
2019-04-28T20:47:37.676Z,86.91
2019-04-28T20:50:04.561Z,87.10
2019-04-28T20:52:30.675Z,86.75
2019-04-28T20:54:56.723Z,86.97
2019-04-28T20:57:22.867Z,86.76
2019-04-28T20:59:49.043Z,87.03
2019-04-28T21:02:15.073Z,87.17
2019-04-28T21:04:41.103Z,86.86
2019-04-28T21:07:07.477Z,87.22
2019-04-28T21:09:33.613Z,87.10
2019-04-28T21:12:00.069Z,87.09
2019-04-28T21:14:26.455Z,86.85
2019-04-28T21:16:52.571Z,87.03
2019-04-28T21:19:18.629Z,87.02
2019-04-28T21:21:45.232Z,86.82
2019-04-28T21:24:11.265Z,86.62
2019-04-28T21:26:37.383Z,87.09
2019-04-28T21:29:03.480Z,87.27
2019-04-28T21:31:32.531Z,87.21
2019-04-28T21:33:57.595Z,87.15
2019-04-28T21:36:23.624Z,87.14
2019-04-28T21:38:49.838Z,85.99
2019-04-28T21:41:15.874Z,83.60
2019-04-28T21:43:55.877Z,84.02
2019-04-28T21:46:24.073Z,85.01
2019-04-28T21:48:51.900Z,85.21
2019-04-28T21:51:18.010Z,85.46
2019-04-28T21:53:44.117Z,85.15
2019-04-28T21:56:10.562Z,84.31
2019-04-28T21:58:37.109Z,84.67
2019-04-28T22:01:04.049Z,84.96
2019-04-28T22:03:30.143Z,84.63
2019-04-28T22:05:56.452Z,84.25
2019-04-28T22:08:22.639Z,85.27
2019-04-28T22:10:48.809Z,85.46
2019-04-28T22:13:14.852Z,85.45
2019-04-28T22:15:41.180Z,84.47
2019-04-28T22:18:07.378Z,83.72
2019-04-28T22:20:33.363Z,84.08
2019-04-28T22:23:01.332Z,84.70
2019-04-28T22:25:27.322Z,84.98
2019-04-28T22:27:53.335Z,85.21
2019-04-28T22:30:19.476Z,85.31
2019-04-28T22:32:45.491Z,84.77
2019-04-28T22:35:11.852Z,85.79
2019-04-28T22:37:37.860Z,86.35
2019-04-28T22:40:05.656Z,86.80
2019-04-28T22:42:31.726Z,86.62
2019-04-28T22:44:57.864Z,86.95
2019-04-28T22:47:23.911Z,86.42
2019-04-28T22:49:50.076Z,87.08
2019-04-28T22:52:16.221Z,86.88
2019-04-28T22:54:50.335Z,87.19
2019-04-28T22:57:27.506Z,87.62
2019-04-28T22:59:55.577Z,88.33
2019-04-28T23:02:23.739Z,88.90
2019-04-28T23:04:51.914Z,88.88
2019-04-28T23:07:18.044Z,89.19
2019-04-28T23:09:44.080Z,89.62
2019-04-28T23:12:10.356Z,90.38
2019-04-28T23:14:36.576Z,90.26
2019-04-28T23:17:03.864Z,90.21
2019-04-28T23:19:31.908Z,90.09
2019-04-28T23:21:59.892Z,90.14
2019-04-28T23:24:25.882Z,90.34
2019-04-28T23:26:51.956Z,90.60
2019-04-28T23:29:17.944Z,90.58
2019-04-28T23:31:44.040Z,90.71
2019-04-28T23:34:10.109Z,90.87
2019-04-28T23:36:36.164Z,91.39
2019-04-28T23:39:05.706Z,91.18
2019-04-28T23:41:36.581Z,91.33
2019-04-28T23:44:02.724Z,91.36
2019-04-28T23:46:47.186Z,91.77
2019-04-28T23:49:13.252Z,91.70
2019-04-28T23:51:44.058Z,91.47
2019-04-28T23:54:10.147Z,92.32
2019-04-28T23:56:36.236Z,92.38
2019-04-28T23:59:02.345Z,92.85
